METAR & TAF

RJTT 262000Z 03014KT 9999 FEW015 BKN030 24/20 Q1010 NOSIG RMK 1CU015 7SC030 A2984
RJTT 261930Z 36010KT 9999 BKN025 25/19 Q1010 NOSIG RMK 7SC025 A2984
RJTT 261900Z 03009KT 9999 BKN025 25/19 Q1010 NOSIG RMK 7SC025 A2983
RJTT 261830Z 02016KT 9999 BKN025 24/18 Q1010 NOSIG RMK 7SC025 A2983
RJTT 261800Z 01011KT 9999 BKN025 BKN050 25/20 Q1010 NOSIG RMK 6SC025 7SC050 A2983
RJTT 261730Z 36009KT 9999 BKN025 BKN050 25/20 Q1010 NOSIG RMK 6SC025 7SC050 A2982
RJTT 261700Z 02010KT 9999 BKN020 BKN050 24/21 Q1010 NOSIG RMK 6SC020 7SC050 A2982
RJTT 261630Z 02012KT 9999 BKN018 BKN050 24/21 Q1010 NOSIG RMK 6SC018 7SC050 A2983
RJTT 261600Z 02011KT 9999 BKN016 24/21 Q1010 NOSIG RMK 7SC016 A2983
RJTT 261530Z 02013KT 9999 BKN016 24/22 Q1010 NOSIG RMK 7SC016 A2983

TAF RJTT 261705Z 2618/2800 01010KT 9999 FEW012 SCT025 BKN040
  TEMPO 2712/2721 FEW005 BKN008